首页
METAR-TAF:

METAR-TAF

机场 :

迪比克, 艾奥瓦州, 美国

纬度: 42-23-52N, 经度: 090-42-13W, 海拔: 328米

当前天气观测

该预报发布于56分钟前的02:53 UTC
静风
温度 20°C
湿度 88%
气压 1012 hPa
能見度: 16.1公里
多云层高于8000英尺

METAR: KDBQ 190253Z AUTO 00000KT 10SM BKN080 20/18 A2989 RMK AO2 SLP116 T02000178 53002

时间: 22:49 (03:49 UTC)

预报

该预报发布于4小时和20分钟前的23:29 UTC
预报有效从19日的 00点(UTC)到 19日的 24点(UTC)
风速3节,风向多变
能見度: 10公里
多云层高于9000英尺
从 19日的 1300点(UTC)
风速5节,风向东北
能見度: 10公里
多云层高于2500英尺
附近有阵雨
从 19日的 2200点(UTC)
风速5节,风向
能見度: 10公里
多云层高于4000英尺

TAF: KDBQ 182329Z 1900/1924 VRB03KT P6SM BKN090 FM191300 04005KT P6SM VCSH BKN025 FM192200 08005KT P6SM BKN040

超过4000个机场的气象观测和天气预报(METAR&TAF报告)。

可查询的气象台以黄色和红色小点在地图上表示。

将鼠标移到小点上方,可查看气象台名称。

然后点击查看天气观测和预报。

如需切换地图:点击带黑十字的绿色按钮放大地图;点击带横线的绿色按钮缩小地图;或者点击绿色箭头查看邻近地区的地图。


METAR-TAF: